Saint Marys City, Maryland
Current Conditions -  °F | °C
As of 8:53 AM on Thursday 30 Oct 2014 (Local Time) from KNUI Reporting Station
NA  
Wind Chill: 53°   Ceiling: NA
Heat Index: 53°   Visibility: 10mi
Dew Point: 42°   Wind: 6mph
Humidity: 66%   Direction: NA
Pressure: 30.04"   Gusts: NA
Location:  38.19°N, 76.43°W
Report Text: KNUI 301253Z AUTO VRB05KT 10SM 12/06 A3004 RMK AO2 SLP172 T01170056 $
Loading
Personal Weather Stations






























Interactive Weather Map New forecast layout! Learn more

10-Day Weather Forecast

Advertisements
Track Severe Weather on mobile